Time;durP1;ratioP1;P1;durP2;ratioP2;P2;SDS_P1;SDS_P2;PMS_P1;PMS_P2;Temp;Humidity;BMP_temperature;BMP_pressure;BME280_temperature;BME280_humidity;BME280_pressure;Samples;Min_cycle;Max_cycle;Signal;HPM_P1;HPM_P2
2021/12/24 00:02:04;;;;;;;;;;;-1.60;86.20;;;;;;6072491;23;19927;-79
2021/12/24 00:04:31;;;;;;;;;;;-1.60;86.20;;;;;;6071832;23;19965;-80
2021/12/24 00:06:58;;;;;;;;;;;-1.60;86.40;;;;;;6072578;23;19988;-80
2021/12/24 00:09:27;;;;;;;;;;;-1.60;87.60;;;;;;6081459;23;19921;-77
2021/12/24 00:11:58;;;;;;;;;;;-1.60;87.50;;;;;;6072387;23;19925;-81
2021/12/24 00:14:26;;;;;;;;;;;-1.60;87.40;;;;;;6076363;23;20236;-78
2021/12/24 00:16:56;;;;;;;;;;;-1.60;87.40;;;;;;6076162;23;19989;-79
2021/12/24 00:20:00;;;;;;;;;;;-1.60;87.20;;;;;;6076469;23;20418;-78
2021/12/24 00:35:40;;;;;;;;;;;-1.90;86.10;;;;;;6102743;23;20258;-80
2021/12/24 00:38:08;;;;;;;;;;;-2.00;86.00;;;;;;6082163;23;19961;-78
2021/12/24 00:40:36;;;;;;;;;;;-2.00;86.40;;;;;;6099817;23;20311;-79
2021/12/24 00:43:04;;;;;;;;;;;-2.00;86.50;;;;;;6102481;23;19951;-80
2021/12/24 00:45:36;;;;;;;;;;;-2.10;86.00;;;;;;6077454;23;19925;-78
2021/12/24 00:48:03;;;;;;;;;;;-2.10;85.80;;;;;;6084800;23;20254;-80
2021/12/24 00:50:32;;;;;;;;;;;-2.10;86.00;;;;;;6129299;23;19929;-79
2021/12/24 00:53:04;;;;;;;;;;;-2.10;86.10;;;;;;6107648;23;19932;-80
2021/12/24 00:55:31;;;;;;;;;;;-2.10;86.20;;;;;;6103040;23;19932;-80
2021/12/24 00:58:04;;;;;;;;;;;-2.10;86.50;;;;;;6100173;23;20398;-80
2021/12/24 01:00:33;;;;;;;;;;;-2.10;87.60;;;;;;6128081;23;19929;-79
2021/12/24 01:03:01;;;;;;;;;;;-2.10;88.20;;;;;;6100503;23;19921;-80
2021/12/24 01:05:29;;;;;;;;;;;-2.10;88.50;;;;;;6099495;23;19957;-78
2021/12/24 01:07:55;;;;;;;;;;;-2.10;87.90;;;;;;6105111;23;20353;-77
2021/12/24 01:10:25;;;;;;;;;;;-2.10;87.50;;;;;;6102398;23;20350;-79
2021/12/24 01:12:52;;;;;;;;;;;-2.00;86.80;;;;;;6109099;23;19925;-77
2021/12/24 01:15:20;;;;;;;;;;;-2.00;86.30;;;;;;6132807;23;19936;-79
2021/12/24 01:17:59;;;;;;;;;;;-2.00;85.60;;;;;;6102679;23;19944;-79
2021/12/24 01:25:44;;;;;;;;;;;-2.00;84.10;;;;;;6125807;23;19969;-81
2021/12/24 01:28:35;;;;;;;;;;;-1.90;83.40;;;;;;6099770;23;20476;-81
2021/12/24 01:44:34;;;;;;;;;;;-1.60;81.30;;;;;;6126387;23;19921;-80
2021/12/24 01:47:02;;;;;;;;;;;-1.60;80.90;;;;;;6126796;23;19929;-80
2021/12/24 01:49:29;;;;;;;;;;;-1.60;80.80;;;;;;6100958;23;19932;-77
2021/12/24 01:51:57;;;;;;;;;;;-1.60;80.80;;;;;;6081432;23;19925;-77
2021/12/24 01:54:25;;;;;;;;;;;-1.50;80.60;;;;;;6069962;23;19925;-80
2021/12/24 01:56:52;;;;;;;;;;;-1.40;80.20;;;;;;6074253;23;19925;-80
2021/12/24 01:59:18;;;;;;;;;;;-1.30;79.70;;;;;;6075558;23;19922;-76
2021/12/24 02:01:46;;;;;;;;;;;-1.10;78.90;;;;;;6071720;23;19940;-79
2021/12/24 02:04:14;;;;;;;;;;;-1.00;78.10;;;;;;6077289;23;19997;-76
2021/12/24 02:06:42;;;;;;;;;;;-0.80;77.50;;;;;;6097281;23;19929;-78
2021/12/24 02:09:09;;;;;;;;;;;-0.50;75.70;;;;;;6077361;23;19925;-80
2021/12/24 02:11:38;;;;;;;;;;;-0.50;74.70;;;;;;6079891;23;19993;-78
2021/12/24 02:14:10;;;;;;;;;;;-0.40;74.40;;;;;;6073856;23;19997;-80
2021/12/24 02:30:28;;;;;;;;;;;-0.10;72.20;;;;;;6099461;23;19926;-79
2021/12/24 02:32:55;;;;;;;;;;;0.00;72.00;;;;;;6072399;23;19929;-80
2021/12/24 02:35:22;;;;;;;;;;;0.10;72.20;;;;;;6077928;23;19921;-80
2021/12/24 02:37:49;;;;;;;;;;;0.00;72.20;;;;;;6073564;23;19929;-79
2021/12/24 02:40:16;;;;;;;;;;;0.10;71.60;;;;;;6074131;23;20343;-78
2021/12/24 02:42:49;;;;;;;;;;;0.10;71.70;;;;;;6070424;23;20270;-80
2021/12/24 02:45:16;;;;;;;;;;;0.10;72.20;;;;;;6077474;23;19921;-77
2021/12/24 02:55:29;;;;;;;;;;;-0.50;76.50;;;;;;6124854;23;19925;-80
2021/12/24 02:57:56;;;;;;;;;;;-0.80;78.90;;;;;;6102712;23;20274;-77
2021/12/24 03:00:26;;;;;;;;;;;-0.90;79.40;;;;;;6100178;23;19925;-79
2021/12/24 03:02:54;;;;;;;;;;;-1.00;79.30;;;;;;6102079;23;20392;-80
2021/12/24 03:05:21;;;;;;;;;;;-1.10;80.30;;;;;;6103021;23;19932;-80
2021/12/24 03:07:48;;;;;;;;;;;-1.20;80.00;;;;;;6105853;23;20006;-80
2021/12/24 03:10:17;;;;;;;;;;;-1.40;81.10;;;;;;6103264;23;19921;-80
2021/12/24 03:12:47;;;;;;;;;;;-1.70;83.10;;;;;;6098475;23;19979;-80
2021/12/24 03:15:16;;;;;;;;;;;-1.80;83.30;;;;;;6102852;23;20354;-79
2021/12/24 03:17:48;;;;;;;;;;;-1.80;83.30;;;;;;6102733;23;19927;-77
2021/12/24 03:20:16;;;;;;;;;;;-1.80;83.00;;;;;;6105861;23;19921;-80
2021/12/24 03:25:13;;;;;;;;;;;-1.80;82.90;;;;;;6124786;23;19921;-80
2021/12/24 03:27:39;;;;;;;;;;;-1.80;82.60;;;;;;6123796;23;20361;-80
2021/12/24 03:30:07;;;;;;;;;;;-1.80;82.60;;;;;;6099545;23;20015;-80
2021/12/24 03:32:34;;;;;;;;;;;-1.80;82.60;;;;;;6128610;23;19948;-81
2021/12/24 03:35:00;;;;;;;;;;;-1.80;82.60;;;;;;6101724;23;19920;-79
2021/12/24 03:37:27;;;;;;;;;;;-1.80;82.20;;;;;;6128349;23;19921;-80
2021/12/24 03:39:55;;;;;;;;;;;-1.70;81.90;;;;;;6101607;23;19925;-79
2021/12/24 03:42:23;;;;;;;;;;;-1.60;81.20;;;;;;6099392;23;19928;-79
2021/12/24 03:44:57;;;;;;;;;;;-1.60;80.90;;;;;;6123783;23;19921;-80
2021/12/24 03:47:26;;;;;;;;;;;-1.60;80.60;;;;;;6104005;23;19976;-79
2021/12/24 03:50:02;;;;;;;;;;;-1.60;80.50;;;;;;6107479;23;19952;-79
2021/12/24 03:54:57;;;;;;;;;;;-1.40;79.40;;;;;;6127145;23;19921;-80
2021/12/24 03:57:24;;;;;;;;;;;-1.30;78.60;;;;;;6102813;23;20261;-80
2021/12/24 03:59:51;;;;;;;;;;;-1.20;77.60;;;;;;6106225;23;19925;-80
2021/12/24 04:02:18;;;;;;;;;;;-1.00;76.40;;;;;;6106363;23;19937;-79
2021/12/24 04:04:45;;;;;;;;;;;-0.90;75.80;;;;;;6078434;23;20258;-80
2021/12/24 04:07:12;;;;;;;;;;;-0.80;75.00;;;;;;6104431;23;19928;-79
2021/12/24 04:09:48;;;;;;;;;;;-0.60;74.10;;;;;;6107904;23;19921;-76
2021/12/24 04:12:15;;;;;;;;;;;-0.50;73.60;;;;;;6101526;23;19924;-79
2021/12/24 04:14:41;;;;;;;;;;;-0.40;73.00;;;;;;6102411;23;19937;-79
2021/12/24 04:17:08;;;;;;;;;;;-0.30;72.40;;;;;;6105446;23;19980;-76
2021/12/24 04:24:52;;;;;;;;;;;0.00;71.40;;;;;;6128641;23;19925;-79
2021/12/24 04:27:21;;;;;;;;;;;0.10;71.10;;;;;;6107099;23;19921;-76
2021/12/24 04:29:48;;;;;;;;;;;0.10;71.20;;;;;;6106185;23;19924;-76
2021/12/24 04:32:26;;;;;;;;;;;0.10;71.00;;;;;;6109861;23;20356;-76
2021/12/24 04:35:03;;;;;;;;;;;0.20;70.70;;;;;;6099960;23;19920;-79
2021/12/24 04:51:22;;;;;;;;;;;0.40;69.20;;;;;;6103780;23;19921;-76
2021/12/24 05:04:47;;;;;;;;;;;0.50;69.00;;;;;;6099512;23;19929;-79
2021/12/24 05:08:02;;;;;;;;;;;0.60;68.60;;;;;;6077496;23;19925;-80
2021/12/24 05:10:02;;;;;;;;;;;0.60;68.50;;;;;;6102580;23;19928;-76
2021/12/24 05:12:33;;;;;;;;;;;0.70;68.10;;;;;;6082847;23;19922;-76
2021/12/24 05:15:01;;;;;;;;;;;0.70;68.10;;;;;;6075021;23;19973;-80
2021/12/24 05:17:47;;;;;;;;;;;0.60;70.90;;;;;;6082042;23;19921;-77
2021/12/24 05:22:59;;;;;;;;;;;0.00;74.50;;;;;;6107599;23;19949;-77
2021/12/24 05:25:26;;;;;;;;;;;-0.30;75.90;;;;;;6074752;23;19925;-80
2021/12/24 05:27:55;;;;;;;;;;;-0.40;76.30;;;;;;6071987;23;19976;-80
2021/12/24 05:30:22;;;;;;;;;;;-0.50;76.20;;;;;;6075087;23;19927;-80
2021/12/24 05:32:49;;;;;;;;;;;-0.50;76.40;;;;;;6075421;23;19972;-80
2021/12/24 05:35:16;;;;;;;;;;;-0.50;76.70;;;;;;6081272;23;19937;-80
2021/12/24 05:37:43;;;;;;;;;;;-0.50;77.00;;;;;;6083111;23;19928;-79
2021/12/24 05:40:10;;;;;;;;;;;-0.60;77.50;;;;;;6086914;23;19922;-80
2021/12/24 05:42:36;;;;;;;;;;;-0.60;77.80;;;;;;6070908;23;19925;-80
2021/12/24 05:45:06;;;;;;;;;;;-0.60;77.30;;;;;;6108245;23;19925;-79
2021/12/24 05:47:33;;;;;;;;;;;-0.60;77.20;;;;;;6084327;23;19951;-80
2021/12/24 05:50:00;;;;;;;;;;;-0.70;78.40;;;;;;6111533;23;19921;-79
2021/12/24 05:52:27;;;;;;;;;;;-0.90;79.60;;;;;;6106211;23;19921;-79
2021/12/24 05:54:54;;;;;;;;;;;-0.90;79.50;;;;;;6100837;23;19924;-79
2021/12/24 05:57:21;;;;;;;;;;;-0.90;79.50;;;;;;6099550;23;19920;-79
2021/12/24 05:59:48;;;;;;;;;;;-0.90;79.60;;;;;;6104164;23;19944;-78
2021/12/24 06:02:15;;;;;;;;;;;-0.90;80.30;;;;;;6108812;23;20338;-79
2021/12/24 06:04:41;;;;;;;;;;;-0.80;79.90;;;;;;6129542;23;20008;-79
2021/12/24 06:07:08;;;;;;;;;;;-0.90;79.90;;;;;;6099968;23;19987;-79
2021/12/24 06:09:35;;;;;;;;;;;-0.90;81.30;;;;;;6134407;23;19988;-79
2021/12/24 06:12:02;;;;;;;;;;;-0.90;80.40;;;;;;6114655;23;19975;-78
2021/12/24 06:14:29;;;;;;;;;;;-0.90;80.60;;;;;;6103990;23;20342;-79
2021/12/24 06:17:02;;;;;;;;;;;-0.90;80.90;;;;;;6111945;23;19921;-78
2021/12/24 06:19:33;;;;;;;;;;;-0.90;81.60;;;;;;6108200;23;19924;-77
2021/12/24 06:21:59;;;;;;;;;;;-1.00;82.40;;;;;;6108876;23;19921;-79
2021/12/24 06:24:26;;;;;;;;;;;-1.00;82.60;;;;;;6135608;23;19921;-78
2021/12/24 06:26:53;;;;;;;;;;;-1.00;82.90;;;;;;6106311;23;19944;-78
2021/12/24 06:29:23;;;;;;;;;;;-1.00;82.90;;;;;;6135268;23;19972;-78
2021/12/24 06:31:50;;;;;;;;;;;-1.00;82.50;;;;;;6102331;23;20338;-79
2021/12/24 06:34:18;;;;;;;;;;;-1.10;83.70;;;;;;6109175;23;19920;-78
2021/12/24 06:36:47;;;;;;;;;;;-1.20;83.50;;;;;;6133181;23;19921;-79
2021/12/24 06:39:15;;;;;;;;;;;-1.10;83.60;;;;;;6099825;23;19980;-79
2021/12/24 06:41:42;;;;;;;;;;;-1.20;84.40;;;;;;6129035;23;19972;-79
2021/12/24 06:44:11;;;;;;;;;;;-1.40;85.60;;;;;;6140479;23;19925;-79
2021/12/24 06:46:40;;;;;;;;;;;-1.50;86.40;;;;;;6103862;23;19976;-78
2021/12/24 06:49:07;;;;;;;;;;;-1.50;87.30;;;;;;6108930;23;19921;-79
2021/12/24 06:51:34;;;;;;;;;;;-1.60;87.40;;;;;;6108736;23;19928;-79
2021/12/24 06:54:02;;;;;;;;;;;-1.50;87.60;;;;;;6099750;23;19928;-79
2021/12/24 06:56:29;;;;;;;;;;;-1.50;87.00;;;;;;6099894;23;19948;-79
2021/12/24 06:58:56;;;;;;;;;;;-1.50;87.40;;;;;;6104272;23;19921;-79
2021/12/24 07:01:23;;;;;;;;;;;-1.40;86.30;;;;;;6108849;23;19921;-79
2021/12/24 07:03:50;;;;;;;;;;;-1.40;86.30;;;;;;6132901;23;19921;-77
2021/12/24 07:06:16;;;;;;;;;;;-1.30;86.50;;;;;;6106837;23;19932;-79
2021/12/24 07:08:43;;;;;;;;;;;-1.30;87.60;;;;;;6103500;23;19932;-78
2021/12/24 07:11:10;;;;;;;;;;;-1.30;87.70;;;;;;6099708;23;19921;-78
2021/12/24 07:13:37;;;;;;;;;;;-1.20;87.80;;;;;;6103544;23;19920;-79
2021/12/24 07:16:04;;;;;;;;;;;-1.20;87.00;;;;;;6134654;23;19924;-79
2021/12/24 07:18:31;;;;;;;;;;;-1.10;85.30;;;;;;6110837;23;19921;-77
2021/12/24 07:20:57;;;;;;;;;;;-0.80;79.30;;;;;;6102333;23;19921;-79
2021/12/24 07:23:24;;;;;;;;;;;-0.40;76.20;;;;;;6104338;23;20247;-77
2021/12/24 07:25:51;;;;;;;;;;;-0.10;74.10;;;;;;6128955;23;20326;-78
2021/12/24 07:28:18;;;;;;;;;;;0.10;72.70;;;;;;6104594;23;20298;-79
2021/12/24 07:30:45;;;;;;;;;;;0.20;72.10;;;;;;6142530;23;19996;-77
2021/12/24 07:33:14;;;;;;;;;;;0.40;70.80;;;;;;6130807;23;19921;-79
2021/12/24 07:35:42;;;;;;;;;;;0.50;70.30;;;;;;6108558;23;19909;-78
2021/12/24 07:38:13;;;;;;;;;;;0.60;70.10;;;;;;6107451;23;20350;-79
2021/12/24 07:40:41;;;;;;;;;;;0.70;69.60;;;;;;6138944;23;19925;-78
2021/12/24 07:43:08;;;;;;;;;;;0.80;68.70;;;;;;6102886;23;19944;-78
2021/12/24 07:45:36;;;;;;;;;;;0.80;68.50;;;;;;6105145;23;19921;-77
2021/12/24 07:48:15;;;;;;;;;;;0.90;68.60;;;;;;6118232;23;19948;-79
2021/12/24 07:53:13;;;;;;;;;;;1.00;67.10;;;;;;6106610;23;20346;-79
2021/12/24 07:55:40;;;;;;;;;;;1.10;67.30;;;;;;6071328;23;19968;-78
2021/12/24 07:58:08;;;;;;;;;;;1.20;66.90;;;;;;6075877;23;19922;-77
2021/12/24 08:00:36;;;;;;;;;;;1.20;67.00;;;;;;6106047;23;19921;-79
2021/12/24 08:03:03;;;;;;;;;;;1.30;66.10;;;;;;6073015;23;19925;-77
2021/12/24 08:05:31;;;;;;;;;;;1.40;65.80;;;;;;6078632;23;19933;-78
2021/12/24 08:08:00;;;;;;;;;;;1.40;65.10;;;;;;6072277;23;19992;-79
2021/12/24 08:10:27;;;;;;;;;;;1.50;64.60;;;;;;6071424;23;19921;-79
2021/12/24 08:12:54;;;;;;;;;;;1.60;64.40;;;;;;6086141;23;20027;-79
2021/12/24 08:15:21;;;;;;;;;;;1.60;64.10;;;;;;6071856;23;20354;-79
2021/12/24 08:17:48;;;;;;;;;;;1.60;64.20;;;;;;6071795;23;20508;-79
2021/12/24 08:20:15;;;;;;;;;;;1.70;64.10;;;;;;6071832;23;19973;-79
2021/12/24 08:22:42;;;;;;;;;;;1.80;63.40;;;;;;6073514;23;19925;-78
2021/12/24 08:25:09;;;;;;;;;;;1.70;63.60;;;;;;6075241;23;20291;-79
2021/12/24 08:27:40;;;;;;;;;;;1.80;63.40;;;;;;6081945;23;19925;-79
2021/12/24 08:30:07;;;;;;;;;;;1.80;63.30;;;;;;6102588;23;19925;-79
2021/12/24 08:32:38;;;;;;;;;;;1.90;62.80;;;;;;6081669;23;19952;-79
2021/12/24 08:35:06;;;;;;;;;;;2.00;62.70;;;;;;6076497;23;19921;-79
2021/12/24 08:37:33;;;;;;;;;;;2.00;62.40;;;;;;6076113;23;19929;-78
2021/12/24 08:40:00;;;;;;;;;;;2.10;62.40;;;;;;6076808;23;19921;-79
2021/12/24 08:42:27;;;;;;;;;;;2.10;62.60;;;;;;6086294;23;19927;-79
2021/12/24 08:44:53;;;;;;;;;;;2.10;62.80;;;;;;6083153;23;19937;-79
2021/12/24 08:47:20;;;;;;;;;;;2.10;62.40;;;;;;6071710;23;19925;-79
2021/12/24 08:49:47;;;;;;;;;;;2.20;61.80;;;;;;6075463;23;20335;-79
2021/12/24 08:52:14;;;;;;;;;;;2.30;61.90;;;;;;6076891;23;19925;-80
2021/12/24 08:54:42;;;;;;;;;;;2.30;61.70;;;;;;6076324;23;19924;-79
2021/12/24 08:57:08;;;;;;;;;;;2.40;60.80;;;;;;6082956;23;19909;-78
2021/12/24 08:59:35;;;;;;;;;;;2.50;60.80;;;;;;6111834;23;20261;-79
2021/12/24 09:02:03;;;;;;;;;;;2.60;60.00;;;;;;6075491;23;19932;-79
2021/12/24 09:04:30;;;;;;;;;;;2.60;60.40;;;;;;6081385;23;19945;-79
2021/12/24 09:06:57;;;;;;;;;;;2.60;60.40;;;;;;6097012;23;19928;-79
2021/12/24 09:09:24;;;;;;;;;;;2.70;60.30;;;;;;6078608;23;19976;-79
2021/12/24 09:11:51;;;;;;;;;;;2.70;60.30;;;;;;6071923;23;19922;-79
2021/12/24 09:14:19;;;;;;;;;;;2.80;60.10;;;;;;6081557;23;19988;-79
2021/12/24 09:16:48;;;;;;;;;;;2.80;59.60;;;;;;6078577;23;19928;-79
2021/12/24 09:19:19;;;;;;;;;;;2.90;59.60;;;;;;6076469;23;19964;-79
2021/12/24 09:21:46;;;;;;;;;;;2.90;60.10;;;;;;6080645;23;19929;-79
2021/12/24 09:24:13;;;;;;;;;;;3.00;58.70;;;;;;6076390;23;19932;-78
2021/12/24 09:26:40;;;;;;;;;;;3.10;58.80;;;;;;6077524;23;20347;-78
2021/12/24 09:29:08;;;;;;;;;;;3.10;59.20;;;;;;6076685;23;19921;-78
2021/12/24 09:31:35;;;;;;;;;;;3.20;59.10;;;;;;6074544;23;19928;-78
2021/12/24 09:34:02;;;;;;;;;;;3.10;60.50;;;;;;6072168;23;19921;-79
2021/12/24 09:36:29;;;;;;;;;;;3.10;62.70;;;;;;6084219;23;19926;-79
2021/12/24 09:38:57;;;;;;;;;;;3.10;63.10;;;;;;6080077;23;20352;-78
2021/12/24 09:41:26;;;;;;;;;;;3.20;63.30;;;;;;6081490;23;20348;-79
2021/12/24 09:43:52;;;;;;;;;;;3.10;64.00;;;;;;6075856;23;19929;-79
2021/12/24 09:46:19;;;;;;;;;;;3.20;65.00;;;;;;6096728;23;19969;-79
2021/12/24 09:48:46;;;;;;;;;;;3.20;64.60;;;;;;6091401;23;20281;-80
2021/12/24 09:51:13;;;;;;;;;;;3.20;64.30;;;;;;6124420;23;19929;-79
2021/12/24 09:53:40;;;;;;;;;;;3.20;64.50;;;;;;6104262;23;20401;-78
2021/12/24 09:56:07;;;;;;;;;;;3.10;66.40;;;;;;6104457;23;19921;-77
2021/12/24 09:58:33;;;;;;;;;;;3.10;67.50;;;;;;6104115;23;19925;-80
2021/12/24 10:01:01;;;;;;;;;;;3.00;68.20;;;;;;6105239;23;19908;-79
2021/12/24 10:03:29;;;;;;;;;;;3.10;68.30;;;;;;6104768;23;19909;-80
2021/12/24 10:05:56;;;;;;;;;;;3.20;67.90;;;;;;6098917;23;19932;-80
2021/12/24 10:08:24;;;;;;;;;;;3.20;68.10;;;;;;6104696;23;19925;-79
2021/12/24 10:10:53;;;;;;;;;;;3.30;68.00;;;;;;6099204;23;19920;-79
2021/12/24 10:13:42;;;;;;;;;;;3.30;68.20;;;;;;6134155;23;19957;-79
2021/12/24 10:16:13;;;;;;;;;;;3.40;67.40;;;;;;6102300;23;19921;-79
2021/12/24 10:18:42;;;;;;;;;;;3.50;64.80;;;;;;6106375;23;19921;-77
2021/12/24 10:21:13;;;;;;;;;;;3.50;68.80;;;;;;6098087;23;19921;-80
2021/12/24 10:24:00;;;;;;;;;;;3.30;70.70;;;;;;6105427;23;19928;-76
2021/12/24 10:26:28;;;;;;;;;;;3.20;71.70;;;;;;6108079;23;20384;-79
2021/12/24 10:28:57;;;;;;;;;;;3.30;68.70;;;;;;6116932;23;19929;-81
2021/12/24 10:31:25;;;;;;;;;;;3.40;67.80;;;;;;6110841;23;19928;-79
2021/12/24 10:34:09;;;;;;;;;;;3.40;68.20;;;;;;6110136;23;19921;-79
2021/12/24 10:36:57;;;;;;;;;;;3.50;67.70;;;;;;6105017;23;20349;-79
2021/12/24 10:39:28;;;;;;;;;;;3.80;63.40;;;;;;6104916;23;19925;-80
2021/12/24 10:41:56;;;;;;;;;;;4.00;60.40;;;;;;6105122;23;19920;-79
2021/12/24 10:44:24;;;;;;;;;;;4.20;59.10;;;;;;6110277;23;19913;-80
2021/12/24 10:47:03;;;;;;;;;;;4.30;58.10;;;;;;6099693;23;20298;-79
2021/12/24 10:54:55;;;;;;;;;;;4.60;56.80;;;;;;6105239;23;19913;-79
2021/12/24 10:57:32;;;;;;;;;;;4.70;55.80;;;;;;6080827;23;19928;-79
2021/12/24 11:00:01;;;;;;;;;;;4.80;55.40;;;;;;6074223;23;19926;-80
2021/12/24 11:02:30;;;;;;;;;;;4.80;56.00;;;;;;6080704;23;19968;-79
2021/12/24 11:04:57;;;;;;;;;;;4.90;55.30;;;;;;6076254;23;19926;-78
2021/12/24 11:07:30;;;;;;;;;;;5.00;55.10;;;;;;6080266;23;19925;-78
2021/12/24 11:10:04;;;;;;;;;;;5.10;54.10;;;;;;6077357;23;20310;-79
2021/12/24 11:12:35;;;;;;;;;;;5.20;54.70;;;;;;6105650;23;20337;-78
2021/12/24 11:15:16;;;;;;;;;;;5.30;54.10;;;;;;6097473;23;19921;-78
2021/12/24 11:17:43;;;;;;;;;;;5.40;54.10;;;;;;6096880;23;19925;-80
2021/12/24 11:20:10;;;;;;;;;;;5.50;53.70;;;;;;6108846;23;19909;-77
2021/12/24 11:22:50;;;;;;;;;;;5.60;52.90;;;;;;6073391;23;20405;-79
2021/12/24 11:25:18;;;;;;;;;;;5.60;52.60;;;;;;6098650;23;19925;-79
2021/12/24 11:27:45;;;;;;;;;;;5.70;52.80;;;;;;6101883;23;20625;-78
2021/12/24 11:30:12;;;;;;;;;;;5.70;53.00;;;;;;6103548;23;19905;-78
2021/12/24 11:32:39;;;;;;;;;;;5.80;53.50;;;;;;6070910;23;19931;-79
2021/12/24 11:35:06;;;;;;;;;;;5.80;54.00;;;;;;6054969;23;19928;-76
2021/12/24 11:37:33;;;;;;;;;;;5.90;54.90;;;;;;6075025;23;19932;-79
2021/12/24 11:40:03;;;;;;;;;;;5.90;54.40;;;;;;6088777;23;19905;-79
2021/12/24 11:42:32;;;;;;;;;;;6.00;53.30;;;;;;6071137;23;19922;-78
2021/12/24 11:45:00;;;;;;;;;;;6.00;53.00;;;;;;6088052;23;19906;-79
2021/12/24 11:47:27;;;;;;;;;;;6.10;52.70;;;;;;6077280;23;19959;-79
2021/12/24 11:49:54;;;;;;;;;;;6.10;52.60;;;;;;6101347;23;19964;-77
2021/12/24 11:52:20;;;;;;;;;;;6.10;52.70;;;;;;6106962;23;20125;-80
2021/12/24 11:54:48;;;;;;;;;;;6.10;53.50;;;;;;6108020;23;20303;-79
2021/12/24 11:57:15;;;;;;;;;;;6.20;53.90;;;;;;6118080;23;19921;-78
2021/12/24 11:59:43;;;;;;;;;;;6.20;53.40;;;;;;6101781;23;19944;-79
2021/12/24 12:02:31;;;;;;;;;;;6.20;53.80;;;;;;6117215;23;19972;-79
2021/12/24 12:05:18;;;;;;;;;;;6.20;54.30;;;;;;6109595;23;19921;-77
2021/12/24 12:07:45;;;;;;;;;;;6.00;58.80;;;;;;6106546;23;19921;-79
2021/12/24 12:10:12;;;;;;;;;;;5.90;61.20;;;;;;6107788;23;19924;-79
2021/12/24 12:12:40;;;;;;;;;;;5.80;62.70;;;;;;6091833;23;19925;-78
2021/12/24 12:15:22;;;;;;;;;;;5.80;63.80;;;;;;6101163;23;20331;-77
2021/12/24 12:17:50;;;;;;;;;;;5.80;64.40;;;;;;6101984;23;19932;-80
2021/12/24 12:20:49;;;;;;;;;;;5.70;65.60;;;;;;6110962;23;20301;-79
2021/12/24 12:23:43;;;;;;;;;;;5.70;65.60;;;;;;6135949;23;20368;-79
2021/12/24 12:26:30;;;;;;;;;;;5.60;66.00;;;;;;6105746;23;19921;-77
2021/12/24 12:29:16;;;;;;;;;;;5.60;65.80;;;;;;6138835;23;20342;-80
2021/12/24 12:31:43;;;;;;;;;;;5.60;66.00;;;;;;6106122;23;19920;-77
2021/12/24 12:34:28;;;;;;;;;;;5.60;66.00;;;;;;6131443;23;19905;-81
2021/12/24 12:37:10;;;;;;;;;;;5.70;65.70;;;;;;6108781;23;19997;-80
2021/12/24 12:39:37;;;;;;;;;;;5.60;65.10;;;;;;6100444;23;19925;-79
2021/12/24 12:42:04;;;;;;;;;;;5.60;65.40;;;;;;6105101;23;19972;-80
2021/12/24 12:44:35;;;;;;;;;;;5.60;65.00;;;;;;6110031;23;19905;-80
2021/12/24 12:47:22;;;;;;;;;;;5.60;65.20;;;;;;6104028;23;19945;-79
2021/12/24 12:49:54;;;;;;;;;;;5.60;65.40;;;;;;6071561;23;20022;-80
2021/12/24 12:52:24;;;;;;;;;;;5.60;65.80;;;;;;6072858;23;19925;-79
2021/12/24 12:54:52;;;;;;;;;;;5.60;65.90;;;;;;6074725;23;19921;-77
2021/12/24 12:57:30;;;;;;;;;;;5.70;65.80;;;;;;6082075;23;19925;-78
2021/12/24 13:00:17;;;;;;;;;;;5.60;65.70;;;;;;6082181;23;19941;-78
2021/12/24 13:02:56;;;;;;;;;;;5.70;66.00;;;;;;6096857;23;20362;-80
2021/12/24 13:05:25;;;;;;;;;;;5.70;66.10;;;;;;6076970;23;20433;-78
2021/12/24 13:07:53;;;;;;;;;;;5.70;66.50;;;;;;6119382;23;19953;-80
2021/12/24 13:10:20;;;;;;;;;;;5.70;67.00;;;;;;6076730;23;19929;-78
2021/12/24 13:12:47;;;;;;;;;;;5.70;67.10;;;;;;6077805;23;19921;-77
2021/12/24 13:15:16;;;;;;;;;;;5.70;66.80;;;;;;6081774;23;19935;-80
2021/12/24 13:17:49;;;;;;;;;;;5.70;66.20;;;;;;6082425;23;19964;-78
2021/12/24 13:20:33;;;;;;;;;;;5.70;66.00;;;;;;6070662;23;19929;-80
2021/12/24 13:23:02;;;;;;;;;;;5.70;66.50;;;;;;6076920;23;19921;-78
2021/12/24 13:25:29;;;;;;;;;;;5.70;66.00;;;;;;6088884;23;20350;-79
2021/12/24 13:27:57;;;;;;;;;;;5.70;66.30;;;;;;6074346;23;19921;-77
2021/12/24 13:30:24;;;;;;;;;;;5.70;65.20;;;;;;6076015;23;19933;-78
2021/12/24 13:32:55;;;;;;;;;;;5.70;65.20;;;;;;6070686;23;19921;-80
2021/12/24 13:35:23;;;;;;;;;;;5.70;65.50;;;;;;6094673;23;19921;-78
2021/12/24 13:37:51;;;;;;;;;;;5.80;65.60;;;;;;6096021;23;19921;-80
2021/12/24 13:40:20;;;;;;;;;;;5.80;65.70;;;;;;6073486;23;19943;-78
2021/12/24 13:42:49;;;;;;;;;;;5.80;66.00;;;;;;6069446;23;20343;-79
2021/12/24 13:45:16;;;;;;;;;;;5.90;65.90;;;;;;6075971;23;19921;-77
2021/12/24 13:48:06;;;;;;;;;;;5.90;66.00;;;;;;6085392;23;20274;-79
2021/12/24 13:56:16;;;;;;;;;;;5.70;66.70;;;;;;6139197;23;19915;-79
2021/12/24 13:58:53;;;;;;;;;;;5.70;66.70;;;;;;6112156;23;19905;-78
2021/12/24 14:01:26;;;;;;;;;;;5.70;66.70;;;;;;6109359;23;19904;-79
2021/12/24 14:03:53;;;;;;;;;;;5.70;65.80;;;;;;6104722;23;19928;-79
2021/12/24 14:06:31;;;;;;;;;;;5.80;65.50;;;;;;6104220;23;20351;-79
2021/12/24 14:09:06;;;;;;;;;;;5.80;65.50;;;;;;6110742;23;20302;-77
2021/12/24 14:11:36;;;;;;;;;;;5.80;65.40;;;;;;6100306;23;19925;-80
2021/12/24 14:14:08;;;;;;;;;;;5.80;65.50;;;;;;6109518;23;19921;-80
2021/12/24 14:16:55;;;;;;;;;;;5.80;64.40;;;;;;6106943;23;20342;-79
2021/12/24 14:19:36;;;;;;;;;;;5.90;63.40;;;;;;6109752;23;19968;-80
2021/12/24 14:22:08;;;;;;;;;;;5.90;62.30;;;;;;6108579;23;19921;-78
2021/12/24 14:24:36;;;;;;;;;;;5.90;61.00;;;;;;6104301;23;20345;-78
2021/12/24 14:27:06;;;;;;;;;;;5.80;60.20;;;;;;6104720;23;19929;-78
2021/12/24 14:29:35;;;;;;;;;;;5.80;59.50;;;;;;6104091;23;19929;-79
2021/12/24 14:32:02;;;;;;;;;;;5.80;59.90;;;;;;6130493;23;19928;-77
2021/12/24 14:34:32;;;;;;;;;;;5.80;59.50;;;;;;6124036;23;19928;-79
2021/12/24 14:37:00;;;;;;;;;;;5.80;59.20;;;;;;6108066;23;19921;-79
2021/12/24 14:39:53;;;;;;;;;;;5.80;58.70;;;;;;6103316;23;19976;-79
2021/12/24 14:42:22;;;;;;;;;;;5.70;59.60;;;;;;6092556;23;19921;-79
2021/12/24 14:44:50;;;;;;;;;;;5.70;60.60;;;;;;6134000;23;19932;-79
2021/12/24 14:47:18;;;;;;;;;;;5.70;60.30;;;;;;6131547;23;20254;-80
2021/12/24 14:49:45;;;;;;;;;;;5.60;59.90;;;;;;6114355;23;19927;-80
2021/12/24 14:52:15;;;;;;;;;;;5.60;59.30;;;;;;6104187;23;19913;-78
2021/12/24 14:55:00;;;;;;;;;;;5.60;58.20;;;;;;6082173;23;19980;-80
2021/12/24 14:57:27;;;;;;;;;;;5.60;57.50;;;;;;6069699;23;19929;-78
2021/12/24 14:59:54;;;;;;;;;;;5.60;57.50;;;;;;6075696;23;19952;-79
2021/12/24 15:02:21;;;;;;;;;;;5.60;57.40;;;;;;6074032;23;19973;-79
2021/12/24 15:04:55;;;;;;;;;;;5.50;57.70;;;;;;6073190;23;19921;-79
2021/12/24 15:07:33;;;;;;;;;;;5.40;58.60;;;;;;6075999;23;19922;-79
2021/12/24 15:10:07;;;;;;;;;;;5.20;59.10;;;;;;6076456;23;19945;-79
2021/12/24 15:12:40;;;;;;;;;;;5.20;59.80;;;;;;6098437;23;19933;-79
2021/12/24 15:15:07;;;;;;;;;;;5.10;59.20;;;;;;6073935;23;19921;-79
2021/12/24 15:17:40;;;;;;;;;;;5.10;58.90;;;;;;6073805;23;19993;-79
2021/12/24 15:20:07;;;;;;;;;;;5.00;59.40;;;;;;6074934;23;19921;-79
2021/12/24 15:22:35;;;;;;;;;;;5.00;58.30;;;;;;6103143;23;19985;-79
2021/12/24 15:25:02;;;;;;;;;;;4.90;58.00;;;;;;6070903;23;20338;-79
2021/12/24 15:27:34;;;;;;;;;;;5.00;57.60;;;;;;6104040;23;20511;-79
2021/12/24 15:30:02;;;;;;;;;;;4.90;57.50;;;;;;6075015;23;19905;-78
2021/12/24 15:32:29;;;;;;;;;;;4.90;57.70;;;;;;6104213;23;19925;-79
2021/12/24 15:34:56;;;;;;;;;;;4.80;57.50;;;;;;6077103;23;19946;-78
2021/12/24 15:37:23;;;;;;;;;;;4.50;59.30;;;;;;6072191;23;19925;-78
2021/12/24 15:39:50;;;;;;;;;;;4.40;60.70;;;;;;6060140;23;19933;-80
2021/12/24 15:42:18;;;;;;;;;;;4.30;61.30;;;;;;6070332;23;19925;-78
2021/12/24 15:44:48;;;;;;;;;;;4.20;61.80;;;;;;6067689;23;20483;-80
2021/12/24 15:47:15;;;;;;;;;;;4.20;62.20;;;;;;6081034;23;19937;-78
2021/12/24 15:49:42;;;;;;;;;;;4.10;62.70;;;;;;6075186;23;19972;-79
2021/12/24 15:52:09;;;;;;;;;;;4.10;63.60;;;;;;6104533;23;19957;-79
2021/12/24 15:54:36;;;;;;;;;;;4.00;65.40;;;;;;6075207;23;19921;-79
2021/12/24 15:57:04;;;;;;;;;;;4.00;65.50;;;;;;6082885;23;20028;-80
2021/12/24 15:59:33;;;;;;;;;;;4.00;66.40;;;;;;6069797;23;20353;-78
2021/12/24 16:02:00;;;;;;;;;;;3.90;67.00;;;;;;6083872;23;19972;-80
2021/12/24 16:04:27;;;;;;;;;;;3.80;66.90;;;;;;6074125;23;19921;-80
2021/12/24 16:06:54;;;;;;;;;;;3.70;68.10;;;;;;6075019;23;19933;-79
2021/12/24 16:09:24;;;;;;;;;;;3.60;68.90;;;;;;6079514;23;19929;-80
2021/12/24 16:11:51;;;;;;;;;;;3.40;68.90;;;;;;6080870;23;19925;-78
2021/12/24 16:14:19;;;;;;;;;;;3.40;68.70;;;;;;6078282;23;19921;-79
2021/12/24 19:12:41;;;;;;;;;;;1.10;84.00;;;;;;6111805;23;19972;-79
2021/12/24 19:15:08;;;;;;;;;;;1.00;83.80;;;;;;6084613;23;19921;-78
2021/12/24 19:17:35;;;;;;;;;;;1.00;83.60;;;;;;6071904;23;19922;-80
2021/12/24 19:20:06;;;;;;;;;;;1.10;83.60;;;;;;6104676;23;20338;-78
2021/12/24 19:22:32;;;;;;;;;;;1.10;83.50;;;;;;6083208;23;19917;-80